sensor_id;sensor_type;location;lat;lon;timestamp;pressure;altitude;pressure_sealevel;temperature;humidity
46412;BME280;32113;42.012;24.870;2022-12-05T00:00:27;100185.75;;;10.22;75.78
46412;BME280;32113;42.012;24.870;2022-12-05T00:02:53;100189.22;;;10.24;75.64
46412;BME280;32113;42.012;24.870;2022-12-05T00:05:18;100193.44;;;10.22;75.24
46412;BME280;32113;42.012;24.870;2022-12-05T00:07:43;100188.22;;;10.11;75.89
46412;BME280;32113;42.012;24.870;2022-12-05T00:10:09;100187.41;;;10.16;75.91
46412;BME280;32113;42.012;24.870;2022-12-05T00:12:34;100181.38;;;10.10;76.63
46412;BME280;32113;42.012;24.870;2022-12-05T00:15:00;100182.19;;;10.08;77.10
46412;BME280;32113;42.012;24.870;2022-12-05T00:17:25;100180.59;;;10.18;76.65
46412;BME280;32113;42.012;24.870;2022-12-05T00:19:50;100184.03;;;10.21;76.36
46412;BME280;32113;42.012;24.870;2022-12-05T00:22:15;100178.91;;;10.21;76.04
46412;BME280;32113;42.012;24.870;2022-12-05T00:24:41;100174.63;;;10.19;76.58
46412;BME280;32113;42.012;24.870;2022-12-05T00:27:06;100184.00;;;10.18;76.49
46412;BME280;32113;42.012;24.870;2022-12-05T00:29:31;100182.22;;;10.12;76.75
46412;BME280;32113;42.012;24.870;2022-12-05T00:31:56;100178.88;;;10.18;76.64
46412;BME280;32113;42.012;24.870;2022-12-05T00:34:22;100175.47;;;10.19;76.26
46412;BME280;32113;42.012;24.870;2022-12-05T00:36:47;100177.19;;;10.20;76.24
46412;BME280;32113;42.012;24.870;2022-12-05T00:39:13;100180.59;;;10.19;76.92
46412;BME280;32113;42.012;24.870;2022-12-05T00:41:39;100182.34;;;10.23;76.25
46412;BME280;32113;42.012;24.870;2022-12-05T00:44:05;100191.75;;;10.26;76.18
46412;BME280;32113;42.012;24.870;2022-12-05T00:46:31;100182.34;;;10.20;76.00
46412;BME280;32113;42.012;24.870;2022-12-05T00:48:57;100188.38;;;10.27;76.07
46412;BME280;32113;42.012;24.870;2022-12-05T00:51:30;100184.09;;;10.24;75.16
46412;BME280;32113;42.012;24.870;2022-12-05T00:53:56;100177.16;;;10.17;76.27
46412;BME280;32113;42.012;24.870;2022-12-05T00:56:22;100179.69;;;10.14;76.29
46412;BME280;32113;42.012;24.870;2022-12-05T00:58:49;100172.88;;;10.15;76.18
46412;BME280;32113;42.012;24.870;2022-12-05T01:01:18;100170.34;;;10.21;76.20
46412;BME280;32113;42.012;24.870;2022-12-05T01:03:44;100170.31;;;10.19;76.52
46412;BME280;32113;42.012;24.870;2022-12-05T01:06:10;100173.78;;;10.21;76.44
46412;BME280;32113;42.012;24.870;2022-12-05T01:08:36;100167.75;;;10.19;76.48
46412;BME280;32113;42.012;24.870;2022-12-05T01:11:01;100164.38;;;10.23;76.09
46412;BME280;32113;42.012;24.870;2022-12-05T01:13:27;100166.94;;;10.20;76.34
46412;BME280;32113;42.012;24.870;2022-12-05T01:15:53;100170.34;;;10.21;75.43
46412;BME280;32113;42.012;24.870;2022-12-05T01:18:18;100165.19;;;10.19;75.84
46412;BME280;32113;42.012;24.870;2022-12-05T01:20:44;100164.34;;;10.17;75.66
46412;BME280;32113;42.012;24.870;2022-12-05T01:23:10;100156.59;;;10.11;76.41
46412;BME280;32113;42.012;24.870;2022-12-05T01:25:38;100156.59;;;10.14;76.46
46412;BME280;32113;42.012;24.870;2022-12-05T01:28:03;100153.22;;;10.18;76.59
46412;BME280;32113;42.012;24.870;2022-12-05T01:30:28;100158.41;;;10.23;76.49
46412;BME280;32113;42.012;24.870;2022-12-05T01:32:54;100152.44;;;10.25;75.47
46412;BME280;32113;42.012;24.870;2022-12-05T01:35:19;100152.41;;;10.22;75.97
46412;BME280;32113;42.012;24.870;2022-12-05T01:37:44;100155.81;;;10.20;75.50
46412;BME280;32113;42.012;24.870;2022-12-05T01:40:09;100152.44;;;10.25;75.66
46412;BME280;32113;42.012;24.870;2022-12-05T01:42:35;100145.63;;;10.29;75.17
46412;BME280;32113;42.012;24.870;2022-12-05T01:45:02;100155.06;;;10.32;74.68
46412;BME280;32113;42.012;24.870;2022-12-05T01:47:28;100151.63;;;10.30;75.49
46412;BME280;32113;42.012;24.870;2022-12-05T01:49:55;100146.44;;;10.25;75.46
46412;BME280;32113;42.012;24.870;2022-12-05T01:52:22;100148.16;;;10.23;75.69
46412;BME280;32113;42.012;24.870;2022-12-05T01:54:49;100152.44;;;10.24;75.81
46412;BME280;32113;42.012;24.870;2022-12-05T01:57:16;100147.28;;;10.22;75.81
46412;BME280;32113;42.012;24.870;2022-12-05T01:59:43;100145.59;;;10.28;75.71
46412;BME280;32113;42.012;24.870;2022-12-05T02:02:09;100143.91;;;10.28;75.98
46412;BME280;32113;42.012;24.870;2022-12-05T02:04:36;100143.91;;;10.27;76.62
46412;BME280;32113;42.012;24.870;2022-12-05T10:14:37;100118.13;;;11.59;68.12
46412;BME280;32113;42.012;24.870;2022-12-05T10:17:14;100109.56;;;11.61;68.97
46412;BME280;32113;42.012;24.870;2022-12-05T10:19:44;100112.97;;;11.65;69.35
46412;BME280;32113;42.012;24.870;2022-12-05T10:27:03;100101.84;;;11.61;68.41
46412;BME280;32113;42.012;24.870;2022-12-05T10:29:41;100108.69;;;11.57;68.61
46412;BME280;32113;42.012;24.870;2022-12-05T10:34:41;100102.66;;;11.46;68.82
46412;BME280;32113;42.012;24.870;2022-12-05T10:39:33;100112.09;;;11.46;69.12
46412;BME280;32113;42.012;24.870;2022-12-05T10:41:58;100112.94;;;11.43;69.02
46412;BME280;32113;42.012;24.870;2022-12-05T10:44:23;100114.63;;;11.36;68.76
46412;BME280;32113;42.012;24.870;2022-12-05T10:46:49;100100.84;;;11.15;69.25
46412;BME280;32113;42.012;24.870;2022-12-05T10:49:14;100098.22;;;11.06;69.85
46412;BME280;32113;42.012;24.870;2022-12-05T10:51:40;100099.03;;;10.93;70.80
46412;BME280;32113;42.012;24.870;2022-12-05T10:54:12;100097.38;;;11.02;71.04
46412;BME280;32113;42.012;24.870;2022-12-05T10:59:04;100088.81;;;11.07;68.51
46412;BME280;32113;42.012;24.870;2022-12-05T11:01:30;100090.53;;;11.03;67.25
46412;BME280;32113;42.012;24.870;2022-12-05T11:03:57;100079.41;;;11.06;68.44
46412;BME280;32113;42.012;24.870;2022-12-05T11:06:23;100083.75;;;11.19;67.42
46412;BME280;32113;42.012;24.870;2022-12-05T11:08:53;100076.06;;;11.32;66.45
46412;BME280;32113;42.012;24.870;2022-12-05T11:11:21;100076.09;;;11.42;64.82
46412;BME280;32113;42.012;24.870;2022-12-05T11:14:06;100078.69;;;11.53;64.55
46412;BME280;32113;42.012;24.870;2022-12-05T11:16:33;100068.44;;;11.61;62.36
46412;BME280;32113;42.012;24.870;2022-12-05T11:19:18;100065.88;;;11.56;62.53
46412;BME280;32113;42.012;24.870;2022-12-05T11:21:48;100065.00;;;11.65;64.25
46412;BME280;32113;42.012;24.870;2022-12-05T11:24:21;100051.31;;;11.71;63.31
46412;BME280;32113;42.012;24.870;2022-12-05T11:26:47;100045.31;;;11.88;62.86
46412;BME280;32113;42.012;24.870;2022-12-05T11:29:32;100038.44;;;11.91;62.60
46412;BME280;32113;42.012;24.870;2022-12-05T11:31:58;100038.47;;;11.98;62.88
46412;BME280;32113;42.012;24.870;2022-12-05T11:34:41;100032.47;;;11.88;59.82
46412;BME280;32113;42.012;24.870;2022-12-05T11:37:11;100039.31;;;11.81;61.25
46412;BME280;32113;42.012;24.870;2022-12-05T11:39:37;100038.47;;;11.80;60.65
46412;BME280;32113;42.012;24.870;2022-12-05T11:42:18;100034.19;;;11.68;60.54
46412;BME280;32113;42.012;24.870;2022-12-05T11:55:16;100041.00;;;11.74;63.08
46412;BME280;32113;42.012;24.870;2022-12-05T11:58:17;100032.44;;;11.85;60.37
46412;BME280;32113;42.012;24.870;2022-12-05T12:16:42;100021.34;;;12.07;60.29
46412;BME280;32113;42.012;24.870;2022-12-05T12:21:40;100017.91;;;12.08;60.25
46412;BME280;32113;42.012;24.870;2022-12-05T12:29:24;100005.03;;;12.16;60.23
46412;BME280;32113;42.012;24.870;2022-12-05T12:32:13;100007.59;;;12.19;61.25
46412;BME280;32113;42.012;24.870;2022-12-05T12:34:48;100011.88;;;12.14;62.31
46412;BME280;32113;42.012;24.870;2022-12-05T12:39:44;100005.03;;;12.15;60.50
46412;BME280;32113;42.012;24.870;2022-12-05T12:42:35;99999.03;;;12.14;60.02
46412;BME280;32113;42.012;24.870;2022-12-05T12:50:32;99999.06;;;12.09;60.16
46412;BME280;32113;42.012;24.870;2022-12-05T13:03:12;99987.00;;;12.04;60.73
46412;BME280;32113;42.012;24.870;2022-12-05T13:11:03;99990.44;;;12.18;59.73
46412;BME280;32113;42.012;24.870;2022-12-05T13:13:34;99990.44;;;12.26;59.55
46412;BME280;32113;42.012;24.870;2022-12-05T13:16:02;99994.72;;;12.24;59.15
46412;BME280;32113;42.012;24.870;2022-12-05T13:18:27;99995.56;;;12.25;57.92
46412;BME280;32113;42.012;24.870;2022-12-05T13:20:54;99993.03;;;12.23;57.80
46412;BME280;32113;42.012;24.870;2022-12-05T13:23:21;99994.72;;;12.21;58.24
46412;BME280;32113;42.012;24.870;2022-12-05T13:25:48;99993.88;;;12.25;59.01
46412;BME280;32113;42.012;24.870;2022-12-05T13:30:49;99989.63;;;12.18;59.71
46412;BME280;32113;42.012;24.870;2022-12-05T13:33:35;99993.00;;;12.25;58.25
46412;BME280;32113;42.012;24.870;2022-12-05T13:36:10;99993.91;;;12.20;58.35
46412;BME280;32113;42.012;24.870;2022-12-05T13:39:05;99986.16;;;12.22;58.86
46412;BME280;32113;42.012;24.870;2022-12-05T13:41:50;99984.44;;;12.22;58.40
46412;BME280;32113;42.012;24.870;2022-12-05T13:47:00;99992.16;;;12.10;59.37
46412;BME280;32113;42.012;24.870;2022-12-05T13:49:46;99982.75;;;12.11;60.47
46412;BME280;32113;42.012;24.870;2022-12-05T13:52:17;99981.03;;;12.09;60.32
46412;BME280;32113;42.012;24.870;2022-12-05T13:54:50;99978.47;;;12.05;60.62
46412;BME280;32113;42.012;24.870;2022-12-05T14:10:14;99967.31;;;12.11;59.52
46412;BME280;32113;42.012;24.870;2022-12-05T14:13:01;99963.03;;;12.11;58.93
46412;BME280;32113;42.012;24.870;2022-12-05T14:15:34;99969.88;;;12.11;58.73
46412;BME280;32113;42.012;24.870;2022-12-05T14:18:00;99967.31;;;12.14;58.61
46412;BME280;32113;42.012;24.870;2022-12-05T14:20:30;99979.31;;;12.10;59.47
46412;BME280;32113;42.012;24.870;2022-12-05T14:28:44;99977.59;;;12.00;60.35
46412;BME280;32113;42.012;24.870;2022-12-05T14:33:42;99971.56;;;12.01;60.63
46412;BME280;32113;42.012;24.870;2022-12-05T14:36:12;99973.31;;;12.05;60.11
46412;BME280;32113;42.012;24.870;2022-12-05T14:38:39;99977.59;;;12.00;60.67
46412;BME280;32113;42.012;24.870;2022-12-05T14:41:30;99976.72;;;11.91;61.90
46412;BME280;32113;42.012;24.870;2022-12-05T14:43:57;99980.16;;;11.89;62.48
46412;BME280;32113;42.012;24.870;2022-12-05T14:46:24;99982.75;;;11.93;63.49
46412;BME280;32113;42.012;24.870;2022-12-05T14:48:50;99972.44;;;11.90;63.37
46412;BME280;32113;42.012;24.870;2022-12-05T14:54:01;99984.47;;;11.88;63.38
46412;BME280;32113;42.012;24.870;2022-12-05T14:56:28;99979.31;;;11.91;62.97
46412;BME280;32113;42.012;24.870;2022-12-05T14:59:05;99983.59;;;11.86;62.48
46412;BME280;32113;42.012;24.870;2022-12-05T15:01:39;99987.03;;;11.82;61.24
46412;BME280;32113;42.012;24.870;2022-12-05T15:06:45;99993.03;;;11.76;63.37
46412;BME280;32113;42.012;24.870;2022-12-05T15:12:14;100002.44;;;11.63;63.92
46412;BME280;32113;42.012;24.870;2022-12-05T15:17:26;100001.59;;;11.44;65.74
46412;BME280;32113;42.012;24.870;2022-12-05T15:20:37;100004.16;;;11.42;64.60
46412;BME280;32113;42.012;24.870;2022-12-05T15:22:43;99993.84;;;11.33;64.71
46412;BME280;32113;42.012;24.870;2022-12-05T15:25:19;99992.13;;;11.29;65.05
46412;BME280;32113;42.012;24.870;2022-12-05T15:27:52;99990.38;;;11.14;65.08
46412;BME280;32113;42.012;24.870;2022-12-05T15:30:18;99995.50;;;11.08;66.02
46412;BME280;32113;42.012;24.870;2022-12-05T15:32:43;99992.09;;;11.09;66.56
46412;BME280;32113;42.012;24.870;2022-12-05T15:35:08;99992.09;;;11.12;66.44
46412;BME280;32113;42.012;24.870;2022-12-05T15:40:19;99990.38;;;11.09;66.20
46412;BME280;32113;42.012;24.870;2022-12-05T15:42:49;99986.97;;;11.06;67.37
46412;BME280;32113;42.012;24.870;2022-12-05T15:45:33;99980.97;;;11.10;67.27
46412;BME280;32113;42.012;24.870;2022-12-05T15:50:32;99980.13;;;11.19;66.00
46412;BME280;32113;42.012;24.870;2022-12-05T15:53:14;99985.25;;;11.17;66.15
46412;BME280;32113;42.012;24.870;2022-12-05T16:01:10;99984.44;;;11.23;65.42
46412;BME280;32113;42.012;24.870;2022-12-05T16:06:38;99982.72;;;11.28;64.71
46412;BME280;32113;42.012;24.870;2022-12-05T16:09:06;99989.59;;;11.32;64.67
46412;BME280;32113;42.012;24.870;2022-12-05T16:11:32;99989.56;;;11.29;65.42
46412;BME280;32113;42.012;24.870;2022-12-05T16:14:00;99985.28;;;11.25;65.23
46412;BME280;32113;42.012;24.870;2022-12-05T16:16:28;99980.16;;;11.22;66.28
46412;BME280;32113;42.012;24.870;2022-12-05T16:18:56;99977.56;;;11.23;65.98
46412;BME280;32113;42.012;24.870;2022-12-05T16:21:29;99981.00;;;11.27;66.19
46412;BME280;32113;42.012;24.870;2022-12-05T16:23:59;99971.59;;;11.24;66.38
46412;BME280;32113;42.012;24.870;2022-12-05T16:26:24;99981.84;;;11.20;66.70
46412;BME280;32113;42.012;24.870;2022-12-05T16:28:56;99982.72;;;11.20;67.15
46412;BME280;32113;42.012;24.870;2022-12-05T16:31:22;99976.72;;;11.23;66.81
46412;BME280;32113;42.012;24.870;2022-12-05T16:33:57;99975.84;;;11.22;67.00
46412;BME280;32113;42.012;24.870;2022-12-05T16:36:23;99981.00;;;11.19;66.37
46412;BME280;32113;42.012;24.870;2022-12-05T16:38:48;99982.66;;;11.08;66.54
46412;BME280;32113;42.012;24.870;2022-12-05T16:41:13;99977.56;;;11.11;66.19
46412;BME280;32113;42.012;24.870;2022-12-05T16:43:41;99986.97;;;11.12;66.69
46412;BME280;32113;42.012;24.870;2022-12-05T16:48:37;99982.69;;;11.12;65.95
46412;BME280;32113;42.012;24.870;2022-12-05T16:53:37;99986.09;;;11.07;66.34
46412;BME280;32113;42.012;24.870;2022-12-05T16:56:03;99977.53;;;11.06;66.83
46412;BME280;32113;42.012;24.870;2022-12-05T16:58:29;99980.09;;;11.08;67.55
46412;BME280;32113;42.012;24.870;2022-12-05T17:01:02;99977.56;;;11.11;66.90
46412;BME280;32113;42.012;24.870;2022-12-05T17:03:28;99985.25;;;11.12;66.70
46412;BME280;32113;42.012;24.870;2022-12-05T17:05:53;99977.53;;;11.14;67.03
46412;BME280;32113;42.012;24.870;2022-12-05T17:08:19;99986.13;;;11.16;67.55
46412;BME280;32113;42.012;24.870;2022-12-05T17:10:44;99983.53;;;11.14;67.18
46412;BME280;32113;42.012;24.870;2022-12-05T17:13:11;99987.84;;;11.20;67.03
46412;BME280;32113;42.012;24.870;2022-12-05T17:15:37;99981.84;;;11.16;67.02
46412;BME280;32113;42.012;24.870;2022-12-05T17:18:05;99982.69;;;11.17;67.69
46412;BME280;32113;42.012;24.870;2022-12-05T17:20:31;99980.97;;;11.13;67.37
46412;BME280;32113;42.012;24.870;2022-12-05T17:22:56;99984.41;;;11.15;67.72
46412;BME280;32113;42.012;24.870;2022-12-05T17:25:26;99983.53;;;11.13;67.49
46412;BME280;32113;42.012;24.870;2022-12-05T17:27:52;99980.13;;;11.09;67.94
46412;BME280;32113;42.012;24.870;2022-12-05T17:30:18;99984.38;;;11.06;67.74
46412;BME280;32113;42.012;24.870;2022-12-05T17:32:43;99997.22;;;11.06;68.43
46412;BME280;32113;42.012;24.870;2022-12-05T17:35:11;99998.94;;;11.07;68.11
46412;BME280;32113;42.012;24.870;2022-12-05T17:37:37;99996.38;;;11.10;68.07
46412;BME280;32113;42.012;24.870;2022-12-05T17:40:03;99992.06;;;11.02;68.67
46412;BME280;32113;42.012;24.870;2022-12-05T17:42:28;99998.94;;;11.08;68.12
46412;BME280;32113;42.012;24.870;2022-12-05T17:44:54;99998.94;;;11.08;68.91
46412;BME280;32113;42.012;24.870;2022-12-05T17:47:19;99997.25;;;11.15;68.17
46412;BME280;32113;42.012;24.870;2022-12-05T17:49:44;100004.94;;;11.13;67.98
46412;BME280;32113;42.012;24.870;2022-12-05T17:52:09;99998.09;;;11.11;68.00
46412;BME280;32113;42.012;24.870;2022-12-05T17:54:35;100004.06;;;11.11;68.42
46412;BME280;32113;42.012;24.870;2022-12-05T17:57:00;100007.50;;;11.10;68.92
46412;BME280;32113;42.012;24.870;2022-12-05T17:59:26;100004.91;;;11.02;67.92
46412;BME280;32113;42.012;24.870;2022-12-05T18:01:51;100004.91;;;10.99;68.75
46412;BME280;32113;42.012;24.870;2022-12-05T18:04:16;100009.19;;;11.00;68.63
46412;BME280;32113;42.012;24.870;2022-12-05T18:06:42;100008.34;;;11.04;68.07
46412;BME280;32113;42.012;24.870;2022-12-05T18:09:07;100008.34;;;11.04;67.80
46412;BME280;32113;42.012;24.870;2022-12-05T18:11:33;100004.03;;;11.02;67.79
46412;BME280;32113;42.012;24.870;2022-12-05T18:13:58;100000.59;;;10.97;68.23
46412;BME280;32113;42.012;24.870;2022-12-05T18:16:24;99998.09;;;11.03;68.15
46412;BME280;32113;42.012;24.870;2022-12-05T18:18:49;100003.19;;;11.00;67.97
46412;BME280;32113;42.012;24.870;2022-12-05T18:21:14;100008.34;;;11.01;68.51
46412;BME280;32113;42.012;24.870;2022-12-05T18:23:40;100004.06;;;10.99;68.39
46412;BME280;32113;42.012;24.870;2022-12-05T18:26:06;100004.91;;;11.02;69.06
46412;BME280;32113;42.012;24.870;2022-12-05T18:28:32;100000.63;;;11.04;67.96
46412;BME280;32113;42.012;24.870;2022-12-05T18:33:32;99994.66;;;11.06;67.86
46412;BME280;32113;42.012;24.870;2022-12-05T18:36:02;100003.22;;;11.08;68.74
46412;BME280;32113;42.012;24.870;2022-12-05T18:38:27;100002.41;;;11.15;67.86
46412;BME280;32113;42.012;24.870;2022-12-05T18:40:57;99996.38;;;11.11;67.95
46412;BME280;32113;42.012;24.870;2022-12-05T18:43:22;99990.41;;;11.12;67.61
46412;BME280;32113;42.012;24.870;2022-12-05T18:45:53;99988.66;;;11.13;67.18
46412;BME280;32113;42.012;24.870;2022-12-05T18:48:18;99993.81;;;11.14;67.59
46412;BME280;32113;42.012;24.870;2022-12-05T18:50:43;99989.56;;;11.16;67.10
46412;BME280;32113;42.012;24.870;2022-12-05T18:53:09;99987.81;;;11.14;66.88
46412;BME280;32113;42.012;24.870;2022-12-05T18:55:34;99982.69;;;11.15;66.83
46412;BME280;32113;42.012;24.870;2022-12-05T18:57:59;99987.81;;;11.14;67.19
46412;BME280;32113;42.012;24.870;2022-12-05T19:00:25;99982.66;;;11.08;67.96
46412;BME280;32113;42.012;24.870;2022-12-05T19:02:50;99986.09;;;11.07;67.15
46412;BME280;32113;42.012;24.870;2022-12-05T19:05:15;99982.66;;;11.08;66.98
46412;BME280;32113;42.012;24.870;2022-12-05T19:07:40;99982.66;;;11.08;67.68
46412;BME280;32113;42.012;24.870;2022-12-05T19:10:06;99978.41;;;11.07;67.99
46412;BME280;32113;42.012;24.870;2022-12-05T19:12:31;99980.13;;;11.12;67.40
46412;BME280;32113;42.012;24.870;2022-12-05T19:14:57;99987.81;;;11.14;67.23
46412;BME280;32113;42.012;24.870;2022-12-05T19:17:22;99983.53;;;11.08;67.65
46412;BME280;32113;42.012;24.870;2022-12-05T19:19:48;99984.41;;;11.07;67.71
46412;BME280;32113;42.012;24.870;2022-12-05T19:22:14;99981.81;;;11.04;68.16
46412;BME280;32113;42.012;24.870;2022-12-05T19:24:39;99991.22;;;11.07;67.73
46412;BME280;32113;42.012;24.870;2022-12-05T19:27:04;99991.22;;;11.07;68.43
46412;BME280;32113;42.012;24.870;2022-12-05T19:29:29;99984.38;;;11.04;68.10
46412;BME280;32113;42.012;24.870;2022-12-05T19:31:55;99984.38;;;11.04;68.43
46412;BME280;32113;42.012;24.870;2022-12-05T19:34:20;99987.78;;;11.04;67.71
46412;BME280;32113;42.012;24.870;2022-12-05T19:36:46;99988.66;;;11.05;67.42
46412;BME280;32113;42.012;24.870;2022-12-05T19:39:16;99995.53;;;11.12;67.67
46412;BME280;32113;42.012;24.870;2022-12-05T19:41:41;99992.94;;;11.08;68.57
46412;BME280;32113;42.012;24.870;2022-12-05T19:44:07;99991.25;;;11.10;68.05
46412;BME280;32113;42.012;24.870;2022-12-05T19:46:32;99993.78;;;11.05;68.34
46412;BME280;32113;42.012;24.870;2022-12-05T19:48:59;99993.78;;;11.03;68.50
46412;BME280;32113;42.012;24.870;2022-12-05T19:51:25;99995.50;;;11.04;68.26
46412;BME280;32113;42.012;24.870;2022-12-05T19:53:50;99990.38;;;11.06;67.83
46412;BME280;32113;42.012;24.870;2022-12-05T19:56:20;99985.22;;;11.01;67.57
46412;BME280;32113;42.012;24.870;2022-12-05T19:58:46;99992.06;;;11.01;67.89
46412;BME280;32113;42.012;24.870;2022-12-05T20:01:15;99991.22;;;11.00;67.74
46412;BME280;32113;42.012;24.870;2022-12-05T20:03:41;99987.78;;;10.94;68.58
46412;BME280;32113;42.012;24.870;2022-12-05T20:06:07;99992.94;;;11.00;68.13
46412;BME280;32113;42.012;24.870;2022-12-05T20:08:33;99989.50;;;11.01;68.85
46412;BME280;32113;42.012;24.870;2022-12-05T20:11:05;99989.50;;;10.96;68.77
46412;BME280;32113;42.012;24.870;2022-12-05T20:13:31;99992.06;;;11.01;68.67
46412;BME280;32113;42.012;24.870;2022-12-05T20:16:07;99988.66;;;10.99;68.93
46412;BME280;32113;42.012;24.870;2022-12-05T20:18:34;99990.34;;;10.92;69.18
46412;BME280;32113;42.012;24.870;2022-12-05T20:21:04;99986.91;;;10.93;69.01
46412;BME280;32113;42.012;24.870;2022-12-05T20:23:30;99987.78;;;10.95;68.84
46412;BME280;32113;42.012;24.870;2022-12-05T20:26:00;99983.47;;;10.89;68.62
46412;BME280;32113;42.012;24.870;2022-12-05T20:28:26;99981.78;;;10.99;68.51
46412;BME280;32113;42.012;24.870;2022-12-05T20:30:52;99976.66;;;11.01;68.54
46412;BME280;32113;42.012;24.870;2022-12-05T20:33:18;99980.09;;;11.04;68.99
46412;BME280;32113;42.012;24.870;2022-12-05T20:35:43;99974.09;;;11.01;68.51
46412;BME280;32113;42.012;24.870;2022-12-05T20:38:09;99968.97;;;10.98;68.37
46412;BME280;32113;42.012;24.870;2022-12-05T20:40:34;99972.38;;;10.92;68.51
46412;BME280;32113;42.012;24.870;2022-12-05T20:42:59;99969.81;;;10.95;68.54
46412;BME280;32113;42.012;24.870;2022-12-05T20:45:24;99967.25;;;10.95;68.18
46412;BME280;32113;42.012;24.870;2022-12-05T20:47:50;99962.97;;;10.97;68.44
46412;BME280;32113;42.012;24.870;2022-12-05T20:50:16;99963.81;;;11.02;68.03
46412;BME280;32113;42.012;24.870;2022-12-05T20:52:41;99967.25;;;11.00;68.14
46412;BME280;32113;42.012;24.870;2022-12-05T20:55:06;99973.22;;;10.91;68.74
46412;BME280;32113;42.012;24.870;2022-12-05T20:57:32;99974.94;;;10.94;69.03
46412;BME280;32113;42.012;24.870;2022-12-05T20:59:58;99966.38;;;10.96;69.36
46412;BME280;32113;42.012;24.870;2022-12-05T21:02:23;99974.09;;;11.01;69.16
46412;BME280;32113;42.012;24.870;2022-12-05T21:04:48;99964.66;;;10.98;69.19
46412;BME280;32113;42.012;24.870;2022-12-05T21:07:14;99969.81;;;10.95;69.80
46412;BME280;32113;42.012;24.870;2022-12-05T21:09:39;99966.38;;;10.96;69.55
46412;BME280;32113;42.012;24.870;2022-12-05T21:12:05;99963.81;;;10.96;69.94
46412;BME280;32113;42.012;24.870;2022-12-05T21:14:30;99968.97;;;11.04;69.40
46412;BME280;32113;42.012;24.870;2022-12-05T21:16:55;99959.56;;;11.01;69.77
46412;BME280;32113;42.012;24.870;2022-12-05T21:19:21;99960.41;;;11.03;69.63
46412;BME280;32113;42.012;24.870;2022-12-05T21:21:46;99958.72;;;11.06;69.01
46412;BME280;32113;42.012;24.870;2022-12-05T21:24:11;99960.41;;;11.07;69.18
46412;BME280;32113;42.012;24.870;2022-12-05T21:26:37;99971.56;;;11.12;67.86
46412;BME280;32113;42.012;24.870;2022-12-05T21:29:04;99956.13;;;11.10;67.67
46412;BME280;32113;42.012;24.870;2022-12-05T21:31:34;99956.97;;;11.04;68.30
46412;BME280;32113;42.012;24.870;2022-12-05T21:34:02;99945.88;;;11.10;68.33
46412;BME280;32113;42.012;24.870;2022-12-05T21:36:29;99944.16;;;11.11;68.01
46412;BME280;32113;42.012;24.870;2022-12-05T21:38:55;99939.88;;;11.13;67.52
46412;BME280;32113;42.012;24.870;2022-12-05T21:41:20;99940.72;;;11.09;67.60
46412;BME280;32113;42.012;24.870;2022-12-05T21:43:46;99936.47;;;11.11;67.86
46412;BME280;32113;42.012;24.870;2022-12-05T21:46:11;99943.28;;;11.02;68.46
46412;BME280;32113;42.012;24.870;2022-12-05T21:48:36;99942.41;;;11.03;68.04
46412;BME280;32113;42.012;24.870;2022-12-05T21:51:05;99930.44;;;11.02;68.20
46412;BME280;32113;42.012;24.870;2022-12-05T21:53:30;99924.44;;;11.03;67.61
46412;BME280;32113;42.012;24.870;2022-12-05T21:55:59;99928.75;;;11.01;68.25
46412;BME280;32113;42.012;24.870;2022-12-05T21:58:25;99920.16;;;11.02;67.96
46412;BME280;32113;42.012;24.870;2022-12-05T22:00:50;99921.00;;;10.89;68.75
46412;BME280;32113;42.012;24.870;2022-12-05T22:03:16;99918.44;;;10.89;68.72
46412;BME280;32113;42.012;24.870;2022-12-05T22:05:41;99914.16;;;10.88;69.10
46412;BME280;32113;42.012;24.870;2022-12-05T22:08:06;99920.16;;;10.93;68.84
46412;BME280;32113;42.012;24.870;2022-12-05T22:10:33;99921.00;;;10.98;67.96
46412;BME280;32113;42.012;24.870;2022-12-05T22:12:58;99909.91;;;10.96;68.64
46412;BME280;32113;42.012;24.870;2022-12-05T22:15:23;99924.41;;;10.93;69.10
46412;BME280;32113;42.012;24.870;2022-12-05T22:17:48;99921.84;;;10.88;69.38
46412;BME280;32113;42.012;24.870;2022-12-05T22:20:14;99914.16;;;10.89;69.60
46412;BME280;32113;42.012;24.870;2022-12-05T22:22:39;99916.69;;;10.83;69.26
46412;BME280;32113;42.012;24.870;2022-12-05T22:25:04;99909.84;;;10.76;70.10
46412;BME280;32113;42.012;24.870;2022-12-05T22:27:30;99909.88;;;10.79;69.05
46412;BME280;32113;42.012;24.870;2022-12-05T22:29:55;99903.00;;;10.73;69.57
46412;BME280;32113;42.012;24.870;2022-12-05T22:32:20;99902.13;;;10.71;69.45
46412;BME280;32113;42.012;24.870;2022-12-05T22:34:45;99908.97;;;10.74;69.48
46412;BME280;32113;42.012;24.870;2022-12-05T22:37:11;99902.97;;;10.62;70.39
46412;BME280;32113;42.012;24.870;2022-12-05T22:39:36;99911.56;;;10.72;70.02
46412;BME280;32113;42.012;24.870;2022-12-05T22:42:02;99903.84;;;10.77;70.09
46412;BME280;32113;42.012;24.870;2022-12-05T22:44:27;99903.84;;;10.74;70.01
46412;BME280;32113;42.012;24.870;2022-12-05T22:46:52;99901.28;;;10.78;69.15
46412;BME280;32113;42.012;24.870;2022-12-05T22:49:18;99893.63;;;10.82;68.65
46412;BME280;32113;42.012;24.870;2022-12-05T22:51:43;99893.59;;;10.83;69.10
46412;BME280;32113;42.012;24.870;2022-12-05T22:54:08;99889.31;;;10.82;69.68
46412;BME280;32113;42.012;24.870;2022-12-05T22:56:34;99885.88;;;10.75;70.45
46412;BME280;32113;42.012;24.870;2022-12-05T22:58:59;99886.75;;;10.81;70.17
46412;BME280;32113;42.012;24.870;2022-12-05T23:01:29;99889.31;;;10.76;70.15
46412;BME280;32113;42.012;24.870;2022-12-05T23:03:55;99882.47;;;10.76;69.97